Time;durP1;ratioP1;P1;durP2;ratioP2;P2;SDS_P1;SDS_P2;PMS_P1;PMS_P2;Temp;Humidity;BMP_temperature;BMP_pressure;BME280_temperature;BME280_humidity;BME280_pressure;Samples;Min_cycle;Max_cycle;Signal;HPM_P1;HPM_P2
2022/09/27 00:02:10;;;;;;;15.70;5.10;;;;;;;20.90;73.94;99537.83;1799619;79;21238;-80
2022/09/27 00:05:16;;;;;;;16.62;5.65;;;;;;;20.78;74.38;99534.91;1800961;79;21169;-79
2022/09/27 00:08:22;;;;;;;10.50;5.37;;;;;;;20.84;74.23;99534.72;1800915;79;21287;-80
2022/09/27 00:11:41;;;;;;;14.07;5.03;;;;;;;20.58;75.08;99533.59;1800658;79;21771;-80
2022/09/27 00:14:47;;;;;;;18.52;6.03;;;;;;;20.35;76.16;99526.90;1799430;79;21319;-80
2022/09/27 00:17:53;;;;;;;11.33;4.80;;;;;;;20.45;75.88;99521.45;1800983;79;21186;-80
2022/09/27 00:21:00;;;;;;;14.43;4.90;;;;;;;20.51;75.61;99514.89;1799408;79;21255;-80
2022/09/27 00:24:04;;;;;;;10.38;4.20;;;;;;;20.66;75.16;99508.13;1799438;79;21744;-80
2022/09/27 00:27:11;;;;;;;12.25;4.53;;;;;;;20.67;74.92;99502.85;1797181;79;21259;-80
2022/09/27 00:30:19;;;;;;;10.20;3.25;;;;;;;20.72;74.70;99501.23;1797538;80;21177;-80
2022/09/27 00:33:25;;;;;;;7.03;3.62;;;;;;;20.67;74.90;99495.91;1797550;80;21173;-80
2022/09/27 00:36:31;;;;;;;17.75;4.17;;;;;;;20.61;74.91;99496.97;1797576;80;21220;-80
2022/09/27 00:39:37;;;;;;;12.30;3.75;;;;;;;20.61;74.77;99506.69;1797576;80;21159;-80
2022/09/27 00:42:44;;;;;;;14.00;4.30;;;;;;;20.71;74.46;99499.56;1796511;80;21213;-80
2022/09/27 00:45:49;;;;;;;9.33;3.95;;;;;;;20.50;75.23;99489.60;1797487;80;21165;-80
2022/09/27 00:48:56;;;;;;;12.70;4.20;;;;;;;20.70;74.62;99486.19;1797766;80;21178;-80
2022/09/27 00:52:05;;;;;;;8.65;3.75;;;;;;;20.72;74.50;99476.22;1797216;80;21913;-78
2022/09/27 00:55:24;;;;;;;11.75;5.03;;;;;;;20.63;74.66;99480.86;1797651;80;21154;-78
2022/09/27 00:58:35;;;;;;;12.53;4.55;;;;;;;20.61;74.45;99469.73;1797799;80;21212;-79
2022/09/27 01:01:40;;;;;;;;;;;;;;;20.29;75.48;99468.25;1800079;80;21205;-79
2022/09/27 01:04:46;;;;;;;16.50;4.05;;;;;;;20.25;75.70;99468.47;1797534;80;20236;-79
2022/09/27 01:07:55;;;;;;;11.33;4.72;;;;;;;20.31;75.63;99466.03;1797531;80;21190;-79
2022/09/27 01:11:17;;;;;;;13.83;4.97;;;;;;;20.42;75.34;99463.12;1797601;80;21177;-79
2022/09/27 01:14:51;;;;;;;18.02;5.33;;;;;;;20.31;75.52;99459.09;1796959;80;21756;-80
2022/09/27 01:18:33;;;;;;;18.12;4.50;;;;;;;20.53;74.95;99466.03;1797544;80;21217;-78
2022/09/27 01:21:58;;;;;;;13.70;4.10;;;;;;;20.58;74.78;99466.92;1797480;80;21193;-78
2022/09/27 01:25:38;;;;;;;14.45;4.33;;;;;;;20.42;75.23;99464.52;1797282;80;21189;-78
2022/09/27 01:29:04;;;;;;;12.28;4.00;;;;;;;20.55;74.86;99473.54;1800947;79;21196;-78
2022/09/27 01:32:19;;;;;;;11.55;4.33;;;;;;;20.59;74.52;99463.03;1802961;79;21169;-78
2022/09/27 01:35:53;;;;;;;8.93;3.87;;;;;;;20.56;74.69;99449.69;1801533;79;21189;-78
2022/09/27 01:39:29;;;;;;;12.40;4.62;;;;;;;20.87;73.77;99455.52;1801041;79;21236;-79
2022/09/27 01:42:47;;;;;;;10.93;5.03;;;;;;;20.67;74.50;99459.78;1800215;79;21212;-78
2022/09/27 01:46:01;;;;;;;19.57;4.50;;;;;;;20.57;75.08;99463.02;1801673;79;21193;-77
2022/09/27 01:49:13;;;;;;;13.30;4.62;;;;;;;20.62;74.80;99456.12;1784334;79;21197;-78
2022/09/27 01:52:19;;;;;;;11.18;4.22;;;;;;;20.66;74.43;99460.06;1803194;79;21220;-78
2022/09/27 01:55:28;;;;;;;21.17;5.83;;;;;;;20.67;74.42;99454.78;1803221;79;21177;-78
2022/09/27 01:59:11;;;;;;;5.42;3.80;;;;;;;20.76;73.62;99449.59;1801752;79;21173;-78
2022/09/27 02:02:18;;;;;;;13.45;4.47;;;;;;;20.68;73.62;99457.84;1803167;79;21233;-78
2022/09/27 02:06:01;;;;;;;11.28;5.08;;;;;;;20.65;73.77;99453.67;1802211;79;21212;-78
2022/09/27 02:09:29;;;;;;;9.80;4.45;;;;;;;20.74;73.25;99444.83;1803210;79;21847;-78
2022/09/27 02:12:47;;;;;;;8.78;5.03;;;;;;;20.53;73.55;99443.26;1802952;79;21740;-78
2022/09/27 02:16:12;;;;;;;8.53;4.42;;;;;;;20.56;73.40;99444.13;1803414;79;21778;-78
2022/09/27 02:19:17;;;;;;;11.43;5.75;;;;;;;20.58;73.17;99429.97;1803164;79;21185;-78
2022/09/27 02:22:50;;;;;;;11.53;5.03;;;;;;;20.43;73.43;99417.58;1795405;79;21173;-78
2022/09/27 02:26:07;;;;;;;16.67;5.28;;;;;;;20.40;73.54;99414.48;1803187;79;21185;-78
2022/09/27 02:29:30;;;;;;;13.43;5.55;;;;;;;20.06;74.48;99417.45;1796500;79;21374;-78
2022/09/27 02:32:36;;;;;;;11.85;5.87;;;;;;;20.16;74.39;99413.39;1797453;80;21744;-78
2022/09/27 02:35:43;;;;;;;13.60;6.45;;;;;;;20.29;73.68;99413.55;1796967;80;21783;-78
2022/09/27 02:38:50;;;;;;;13.15;5.78;;;;;;;20.15;74.41;99421.44;1797525;80;21182;-78
2022/09/27 02:41:58;;;;;;;12.23;5.35;;;;;;;20.24;74.08;99418.20;1797616;80;21169;-78
2022/09/27 02:45:06;;;;;;;13.43;5.83;;;;;;;20.28;73.96;99413.78;1797664;80;21221;-78
2022/09/27 02:48:31;;;;;;;11.18;5.55;;;;;;;19.85;75.46;99415.52;1797456;80;21756;-78
2022/09/27 02:52:24;;;;;;;9.55;5.17;;;;;;;19.76;75.62;99408.22;1798123;80;21736;-78
2022/09/27 02:55:51;;;;;;;13.00;5.10;;;;;;;19.96;75.05;99402.62;1796177;80;21169;-78
2022/09/27 02:59:21;;;;;;;11.57;4.75;;;;;;;19.80;75.77;99398.81;1796218;80;21181;-78
2022/09/27 03:02:50;;;;;;;7.87;4.55;;;;;;;19.69;76.46;99385.92;1797555;80;21150;-78
2022/09/27 03:06:03;;;;;;;12.05;5.55;;;;;;;19.82;76.40;99388.30;1797287;80;21787;-78
2022/09/27 03:09:09;;;;;;;11.88;5.03;;;;;;;19.82;76.33;99389.14;1796146;80;21165;-78
2022/09/27 03:12:21;;;;;;;7.28;4.50;;;;;;;19.73;77.16;99386.53;1797760;80;21232;-78
2022/09/27 03:15:24;;;;;;;20.37;5.65;;;;;;;19.57;77.89;99366.59;1797745;80;21788;-78
2022/09/27 03:18:30;;;;;;;10.45;5.00;;;;;;;19.51;78.74;99350.98;1797696;80;21177;-78
2022/09/27 03:21:55;;;;;;;17.92;5.58;;;;;;;19.75;78.27;99351.58;1794761;80;21248;-78
2022/09/27 03:25:01;;;;;;;15.45;6.08;;;;;;;19.70;78.41;99359.30;1796284;80;21272;-78
2022/09/27 03:28:08;;;;;;;12.25;5.55;;;;;;;19.73;79.03;99360.18;1796178;80;21189;-78
2022/09/27 03:31:15;;;;;;;13.48;5.15;;;;;;;19.94;78.23;99348.75;1796100;80;21178;-78
2022/09/27 03:34:38;;;;;;;19.77;6.60;;;;;;;19.64;79.38;99354.24;1796768;80;21296;-78
2022/09/27 03:37:46;;;;;;;11.93;6.03;;;;;;;19.80;79.39;99341.38;1796290;80;21225;-78
2022/09/27 03:40:52;;;;;;;17.10;6.78;;;;;;;19.66;80.10;99342.33;1796187;79;21239;-78
2022/09/27 03:43:58;;;;;;;18.55;6.83;;;;;;;19.70;80.30;99343.20;1797196;80;21197;-78
2022/09/27 03:47:05;;;;;;;16.12;6.20;;;;;;;19.72;80.58;99341.03;1797772;80;21240;-78
2022/09/27 03:50:10;;;;;;;11.90;6.37;;;;;;;20.05;79.30;99342.23;1797291;80;21205;-78
2022/09/27 03:53:16;;;;;;;18.02;6.22;;;;;;;20.09;79.66;99348.94;1796101;80;21209;-78
2022/09/27 03:56:23;;;;;;;15.63;5.72;;;;;;;20.07;79.76;99349.73;1797631;80;21716;-78
2022/09/27 03:59:31;;;;;;;13.03;5.75;;;;;;;20.19;78.97;99336.25;1797782;80;21182;-78
2022/09/27 04:02:48;;;;;;;12.30;6.35;;;;;;;20.08;79.60;99334.73;1780855;79;21221;-78
2022/09/27 04:06:10;;;;;;;12.78;6.08;;;;;;;20.09;79.81;99339.22;1797860;80;21288;-78
2022/09/27 04:09:16;;;;;;;16.85;6.40;;;;;;;19.98;80.05;99324.92;1797523;80;21189;-78
2022/09/27 04:12:24;;;;;;;17.95;6.15;;;;;;;20.28;79.01;99320.24;1797570;80;21175;-78
2022/09/27 04:15:24;;;;;;;16.30;6.47;;;;;;;20.30;78.88;99325.52;1796667;80;21768;-78
2022/09/27 04:18:46;;;;;;;13.43;5.83;;;;;;;20.34;78.93;99335.84;1797576;80;21173;-78
2022/09/27 04:21:58;;;;;;;13.80;6.17;;;;;;;20.41;79.01;99328.66;1796231;80;21208;-80
2022/09/27 04:25:03;;;;;;;17.30;7.03;;;;;;;20.11;80.08;99323.67;1796150;80;21752;-78
2022/09/27 04:28:10;;;;;;;19.48;7.92;;;;;;;20.14;80.26;99328.16;1796146;80;21192;-78
2022/09/27 04:31:17;;;;;;;16.00;6.90;;;;;;;20.05;80.69;99328.34;1799233;79;21208;-78
2022/09/27 04:38:05;;;;;;;20.17;6.78;;;;;;;20.39;79.68;99320.61;1802314;79;21225;-79
2022/09/27 04:41:11;;;;;;;13.98;6.90;;;;;;;20.48;79.51;99322.94;1803252;79;21179;-79
2022/09/27 04:44:17;;;;;;;9.95;5.45;;;;;;;20.45;79.52;99325.65;1803284;79;21780;-79
2022/09/27 04:47:22;;;;;;;13.53;6.85;;;;;;;20.46;79.63;99321.77;1803222;79;21189;-79
2022/09/27 04:50:27;;;;;;;18.98;6.87;;;;;;;20.76;78.78;99318.98;1802719;79;21220;-79
2022/09/27 04:53:34;;;;;;;15.32;7.35;;;;;;;20.84;78.51;99311.52;1802070;79;21180;-79
2022/09/27 04:56:41;;;;;;;13.98;6.35;;;;;;;21.06;77.26;99305.27;1802941;79;21224;-79
2022/09/27 04:59:46;;;;;;;18.17;6.78;;;;;;;21.18;77.06;99293.95;1803051;79;21161;-79
2022/09/27 05:02:53;;;;;;;14.70;6.80;;;;;;;21.16;76.87;99289.20;1801419;79;21165;-78
2022/09/27 05:06:01;;;;;;;20.32;6.67;;;;;;;20.99;77.92;99296.35;1784892;79;21161;-78
2022/09/27 05:09:09;;;;;;;13.08;6.70;;;;;;;21.09;77.76;99296.41;1799917;77;21181;-78
2022/09/27 05:12:17;;;;;;;15.30;7.12;;;;;;;21.28;77.16;99291.77;1781763;79;21769;-78
2022/09/27 05:15:25;;;;;;;14.43;7.58;;;;;;;21.04;77.91;99303.33;1794603;79;21170;-78
2022/09/27 05:18:27;;;;;;;15.98;6.20;;;;;;;21.25;77.39;99302.86;1785487;79;21183;-79
2022/09/27 05:21:39;;;;;;;14.03;6.97;;;;;;;21.36;76.72;99296.81;1794066;77;21193;-79
2022/09/27 05:24:48;;;;;;;18.32;7.40;;;;;;;21.38;76.76;99285.72;1789088;79;21188;-79
2022/09/27 05:27:54;;;;;;;11.85;7.10;;;;;;;21.41;76.26;99289.36;1787345;79;21181;-79
2022/09/27 05:30:59;;;;;;;9.63;5.45;;;;;;;21.43;75.72;99295.47;1749467;81;21242;-79
2022/09/27 05:34:07;;;;;;;10.50;5.55;;;;;;;21.52;75.38;99289.39;1700269;83;21189;-79
2022/09/27 05:37:15;;;;;;;9.85;5.83;;;;;;;21.62;74.62;99292.20;1717878;81;31338;-79
2022/09/27 05:40:24;;;;;;;10.25;5.20;;;;;;;21.51;73.76;99285.77;1671698;84;21206;-78
2022/09/27 05:43:31;;;;;;;10.48;5.47;;;;;;;21.43;73.68;99291.30;1702069;83;21223;-79
2022/09/27 05:46:38;;;;;;;11.03;5.85;;;;;;;21.37;74.25;99288.78;1711657;83;21228;-80
2022/09/27 05:49:43;;;;;;;8.68;5.33;;;;;;;21.14;74.72;99295.03;1706393;83;21246;-80
2022/09/27 05:52:50;;;;;;;7.60;5.12;;;;;;;21.23;74.74;99290.36;1712817;82;21178;-80
2022/09/27 05:55:57;;;;;;;9.05;5.80;;;;;;;21.23;74.91;99282.02;1690762;83;21150;-80
2022/09/27 05:59:20;;;;;;;10.30;5.33;;;;;;;21.33;74.58;99277.91;1706019;83;21421;-78
2022/09/27 06:02:46;;;;;;;9.83;5.50;;;;;;;21.40;74.38;99282.09;1680922;83;21795;-79
2022/09/27 06:06:10;;;;;;;9.60;4.90;;;;;;;21.26;75.09;99277.28;1677321;83;21826;-79
2022/09/27 06:09:18;;;;;;;12.00;5.80;;;;;;;21.60;74.00;99275.80;1703342;83;21870;-80
2022/09/27 06:12:24;;;;;;;11.53;6.10;;;;;;;21.62;73.60;99279.13;1666871;84;21184;-80
2022/09/27 06:15:24;;;;;;;11.05;6.12;;;;;;;21.80;72.91;99278.34;1697601;84;22584;-79
2022/09/27 06:18:34;;;;;;;12.18;5.22;;;;;;;21.72;72.81;99276.09;1695141;83;21208;-80
2022/09/27 06:21:40;;;;;;;9.00;4.58;;;;;;;21.52;73.84;99271.30;1699400;83;22248;-80
2022/09/27 06:24:48;;;;;;;13.70;4.90;;;;;;;21.60;73.28;99272.17;1689014;83;21193;-79
2022/09/27 06:27:55;;;;;;;8.43;4.08;;;;;;;21.49;73.78;99260.16;1711456;83;21210;-79
2022/09/27 06:31:02;;;;;;;9.55;5.10;;;;;;;21.25;74.19;99249.20;1701848;84;21213;-79
2022/09/27 06:34:13;;;;;;;7.15;4.87;;;;;;;21.41;73.67;99252.37;1701656;82;21288;-79
2022/09/27 06:37:19;;;;;;;7.90;4.08;;;;;;;21.59;72.47;99233.75;1697889;81;56899;-79
2022/09/27 06:40:25;;;;;;;8.83;4.72;;;;;;;21.64;71.80;99237.97;1697812;82;21209;-79
2022/09/27 06:43:49;;;;;;;6.03;4.10;;;;;;;21.51;72.06;99239.87;1716763;83;21242;-79
2022/09/27 06:47:07;;;;;;;10.00;4.50;;;;;;;21.71;71.53;99236.86;1693641;83;21244;-78
2022/09/27 06:50:16;;;;;;;10.18;4.90;;;;;;;21.49;72.14;99232.90;1723241;81;21747;-79
2022/09/27 06:53:22;;;;;;;6.90;4.17;;;;;;;21.53;72.44;99233.47;1724931;81;21192;-79
2022/09/27 06:56:28;;;;;;;8.68;5.00;;;;;;;21.78;71.75;99236.02;1722497;81;21239;-80
2022/09/27 07:03:10;;;;;;;10.38;4.42;;;;;;;21.85;71.79;99240.22;1688664;83;21175;-80
2022/09/27 07:06:26;;;;;;;8.28;4.20;;;;;;;21.82;71.85;99227.40;1698206;82;21742;-80
2022/09/27 07:09:42;;;;;;;10.45;4.83;;;;;;;21.98;71.58;99224.92;1707426;82;21188;-78
2022/09/27 07:12:51;;;;;;;7.70;4.72;;;;;;;22.27;70.43;99226.63;1698772;82;21188;-78
2022/09/27 07:15:57;;;;;;;5.83;3.98;;;;;;;22.42;69.70;99231.34;1721971;82;21199;-78
2022/09/27 07:18:58;;;;;;;;;;;;;;;22.47;68.90;99242.48;1716619;81;21201;-79
2022/09/27 07:22:04;;;;;;;10.38;4.60;;;;;;;22.34;68.95;99240.26;1718239;82;20246;-79
2022/09/27 07:25:12;;;;;;;8.98;5.42;;;;;;;22.20;69.18;99233.84;1713518;82;21168;-79
2022/09/27 07:28:24;;;;;;;8.70;4.60;;;;;;;22.43;68.37;99236.63;1719640;82;22320;-80
2022/09/27 07:31:33;;;;;;;8.40;4.65;;;;;;;22.54;67.99;99239.43;1722854;81;21227;-79
2022/09/27 07:34:41;;;;;;;4.75;4.08;;;;;;;22.35;68.75;99244.73;1729445;81;21349;-79
2022/09/27 07:37:45;;;;;;;8.93;4.97;;;;;;;22.20;69.29;99241.38;1731615;81;21418;-81
2022/09/27 07:40:59;;;;;;;16.77;5.03;;;;;;;22.27;69.34;99235.55;1825825;76;22604;-78
2022/09/27 07:44:04;;;;;;;8.65;4.40;;;;;;;22.27;69.27;99233.59;1794526;79;21296;-78
2022/09/27 07:47:15;;;;;;;6.25;4.00;;;;;;;22.42;69.20;99222.98;1790715;77;21150;-79
2022/09/27 07:50:37;;;;;;;9.00;4.95;;;;;;;22.49;69.26;99226.34;1781114;79;21229;-81
2022/09/27 07:53:46;;;;;;;14.07;4.08;;;;;;;22.78;69.03;99224.33;1725941;80;21933;-80
2022/09/27 07:57:01;;;;;;;12.07;4.60;;;;;;;22.96;68.71;99216.78;1726843;81;21469;-80
2022/09/27 08:00:11;;;;;;;7.58;3.92;;;;;;;23.25;67.85;99202.98;1733784;82;21255;-79
2022/09/27 08:03:25;;;;;;;8.00;4.33;;;;;;;22.90;68.15;99203.95;1722083;82;21172;-80
2022/09/27 08:06:30;;;;;;;10.03;4.17;;;;;;;22.90;67.97;99192.80;1718606;81;21257;-80
2022/09/27 08:09:37;;;;;;;7.17;3.37;;;;;;;22.99;67.20;99195.84;1735322;82;21203;-79
2022/09/27 08:12:42;;;;;;;6.25;2.83;;;;;;;23.04;66.97;99189.67;1733049;82;21184;-79
2022/09/27 08:15:51;;;;;;;6.03;3.22;;;;;;;23.00;66.67;99177.42;1732449;82;21196;-79
2022/09/27 08:18:52;;;;;;;7.62;3.05;;;;;;;23.14;66.14;99170.66;1706577;82;21724;-79
2022/09/27 08:22:04;;;;;;;5.33;3.10;;;;;;;23.16;65.40;99174.85;1716511;82;21223;-80
2022/09/27 08:24:51;;;;;;;6.83;2.67;;;;;;;23.15;65.52;99177.37;1742576;82;21752;-80
2022/09/27 08:27:54;;;;;;;8.03;2.65;;;;;;;23.10;65.50;99177.40;1720612;80;21235;-79
2022/09/27 08:31:06;;;;;;;9.80;3.02;;;;;;;23.13;64.89;99168.44;1720357;81;21334;-80
2022/09/27 08:34:14;;;;;;;7.83;3.37;;;;;;;23.15;64.97;99173.19;1728576;81;21328;-80
2022/09/27 08:37:19;;;;;;;7.95;3.08;;;;;;;23.00;64.48;99164.88;1733844;81;21180;-79
2022/09/27 08:40:26;;;;;;;9.85;3.30;;;;;;;22.77;65.31;99159.91;1727387;82;21341;-80
2022/09/27 08:44:14;;;;;;;4.80;2.70;;;;;;;23.01;64.77;99158.73;1733746;82;21194;-80
2022/09/27 08:47:31;;;;;;;9.03;2.95;;;;;;;22.98;64.72;99158.77;1735239;82;21199;-79
2022/09/27 08:50:42;;;;;;;3.98;2.75;;;;;;;23.13;64.26;99153.10;1736162;82;21278;-78
2022/09/27 08:54:01;;;;;;;8.75;2.77;;;;;;;23.29;63.78;99151.61;1728257;82;21203;-79
2022/09/27 08:57:18;;;;;;;8.45;2.85;;;;;;;23.26;62.88;99160.02;1732180;82;21521;-79
2022/09/27 09:00:25;;;;;;;5.35;2.90;;;;;;;23.26;62.88;99153.61;1730907;82;21283;-79
2022/09/27 09:03:34;;;;;;;8.05;3.10;;;;;;;23.41;62.07;99153.51;1736699;82;21211;-79
2022/09/27 09:06:52;;;;;;;4.30;2.62;;;;;;;23.45;61.75;99143.44;1733048;82;21204;-79
2022/09/27 09:14:11;;;;;;;4.30;3.05;;;;;;;23.39;62.01;99145.44;1728693;82;21224;-79
2022/09/27 09:17:43;;;;;;;7.72;3.40;;;;;;;23.56;61.71;99145.59;1703835;83;21545;-79
2022/09/27 09:21:24;;;;;;;5.25;3.05;;;;;;;23.58;61.83;99148.94;1714507;83;21570;-80
2022/09/27 09:24:53;;;;;;;8.18;3.45;;;;;;;23.53;61.84;99146.19;1712793;83;21196;-78
2022/09/27 09:28:43;;;;;;;6.53;3.08;;;;;;;23.54;62.06;99147.28;1722505;82;21176;-79
2022/09/27 09:32:21;;;;;;;5.30;2.95;;;;;;;23.41;62.23;99139.55;1718869;81;21210;-79
2022/09/27 09:35:18;;;;;;;6.50;2.65;;;;;;;23.51;61.85;99132.50;1713735;83;21203;-78
2022/09/27 09:38:25;;;;;;;6.37;2.98;;;;;;;23.46;61.91;99130.58;1711137;81;21177;-79
2022/09/27 09:42:08;;;;;;;4.55;2.75;;;;;;;23.85;60.31;99134.50;1705092;83;21536;-79
2022/09/27 09:45:45;;;;;;;5.25;2.72;;;;;;;24.00;59.70;99137.75;1701531;82;21206;-81
2022/09/27 09:49:10;;;;;;;6.67;3.37;;;;;;;24.07;58.82;99137.66;1731810;81;21278;-80
2022/09/27 09:52:25;;;;;;;9.35;3.00;;;;;;;24.13;58.17;99130.89;1696118;83;21236;-79
2022/09/27 09:55:36;;;;;;;4.70;2.87;;;;;;;24.01;57.53;99123.48;1726760;81;21264;-79
2022/09/27 09:58:54;;;;;;;5.05;2.60;;;;;;;24.11;55.55;99130.94;1717892;83;21221;-79
2022/09/27 10:02:04;;;;;;;6.08;2.35;;;;;;;23.91;55.47;99124.98;1703963;82;21195;-80
2022/09/27 10:05:12;;;;;;;;;;;;;;;24.13;54.95;99128.10;1733399;81;22324;-79
2022/09/27 10:08:27;;;;;;;5.42;2.40;;;;;;;24.16;54.84;99128.92;1696825;82;20250;-79
2022/09/27 10:11:45;;;;;;;6.00;2.00;;;;;;;24.08;54.42;99123.96;1721622;82;21192;-79
2022/09/27 10:14:55;;;;;;;3.90;2.15;;;;;;;23.98;53.78;99122.66;1722583;82;21215;-79
2022/09/27 10:18:04;;;;;;;3.15;1.90;;;;;;;23.80;54.12;99120.59;1728907;82;21188;-79
2022/09/27 10:21:20;;;;;;;4.08;2.00;;;;;;;23.63;54.18;99115.41;1717363;82;21317;-79
2022/09/27 10:24:27;;;;;;;4.87;1.90;;;;;;;23.30;53.74;99121.23;1723453;81;21282;-78
2022/09/27 10:27:34;;;;;;;5.03;2.37;;;;;;;23.08;54.58;99123.02;1720267;82;21252;-80
2022/09/27 10:30:45;;;;;;;5.10;2.02;;;;;;;23.15;54.95;99109.04;1722095;82;21243;-81
2022/09/27 10:34:04;;;;;;;4.53;2.10;;;;;;;23.21;55.17;99108.44;1728343;81;21268;-80
2022/09/27 10:37:30;;;;;;;6.53;2.30;;;;;;;23.12;55.75;99102.63;1721201;82;21804;-80
2022/09/27 10:40:39;;;;;;;6.67;2.37;;;;;;;23.13;55.67;99103.47;1721867;81;21418;-79
2022/09/27 10:43:44;;;;;;;5.10;2.27;;;;;;;23.05;56.18;99097.09;1735400;82;21842;-80
2022/09/27 10:46:56;;;;;;;4.28;1.92;;;;;;;22.90;57.25;99089.64;1731947;80;21550;-80
2022/09/27 10:50:13;;;;;;;7.08;2.67;;;;;;;22.76;57.83;99091.36;1738693;80;21271;-78
2022/09/27 10:53:27;;;;;;;8.15;2.60;;;;;;;22.83;57.55;99091.90;1727969;82;21251;-79
2022/09/27 10:56:41;;;;;;;5.45;2.92;;;;;;;22.91;57.54;99080.16;1738977;82;21203;-79
2022/09/27 10:59:49;;;;;;;8.48;2.95;;;;;;;23.06;57.20;99075.91;1731517;80;22659;-79
2022/09/27 11:03:00;;;;;;;7.30;3.35;;;;;;;22.92;57.59;99066.52;1737610;80;21274;-80
2022/09/27 11:06:05;;;;;;;10.38;3.30;;;;;;;23.05;57.58;99070.03;1738552;82;21188;-80
2022/09/27 11:09:30;;;;;;;8.28;2.67;;;;;;;23.31;56.79;99058.72;1740014;82;21171;-79
2022/09/27 11:12:40;;;;;;;8.63;3.08;;;;;;;23.13;57.34;99059.67;1725557;82;22171;-79
2022/09/27 11:16:14;;;;;;;4.83;2.75;;;;;;;23.07;57.48;99053.03;1740299;82;21183;-80
2022/09/27 11:19:54;;;;;;;6.28;3.17;;;;;;;23.20;56.96;99044.86;1729740;82;21653;-79
2022/09/27 11:23:24;;;;;;;6.90;3.30;;;;;;;23.14;57.17;99045.16;1707601;82;21251;-79
2022/09/27 11:26:45;;;;;;;6.20;3.83;;;;;;;23.28;56.98;99050.36;1712375;82;21176;-78
2022/09/27 11:30:19;;;;;;;7.95;3.72;;;;;;;23.06;57.51;99045.80;1720882;82;21196;-78
2022/09/27 11:33:50;;;;;;;6.22;3.15;;;;;;;23.28;56.95;99048.13;1703938;82;21259;-80
2022/09/27 11:37:23;;;;;;;7.45;2.77;;;;;;;23.08;57.27;99054.13;1722657;82;21208;-80
2022/09/27 11:40:39;;;;;;;7.70;3.17;;;;;;;23.24;56.61;99045.08;1718318;82;21170;-80
2022/09/27 11:43:54;;;;;;;6.15;3.83;;;;;;;22.94;57.28;99045.57;1715622;82;21173;-80
2022/09/27 11:47:27;;;;;;;22.58;11.85;;;;;;;22.94;57.43;99044.17;1702527;83;21185;-80
2022/09/27 11:51:08;;;;;;;271.13;134.52;;;;;;;22.87;57.75;99038.63;1696310;83;21244;-80
2022/09/27 11:54:45;;;;;;;101.92;56.33;;;;;;;23.07;57.51;99030.16;1696368;83;21204;-80
2022/09/27 11:58:22;;;;;;;35.15;20.97;;;;;;;23.03;57.74;99024.88;1708203;83;22413;-78
2022/09/27 12:01:38;;;;;;;44.33;21.25;;;;;;;23.13;57.58;99023.98;1708490;82;21236;-78
2022/09/27 12:05:10;;;;;;;13.08;6.62;;;;;;;22.93;58.29;99016.03;1703067;82;21161;-78
2022/09/27 12:08:51;;;;;;;11.05;5.28;;;;;;;23.03;58.13;99005.37;1695703;82;21209;-78
2022/09/27 12:12:07;;;;;;;18.70;6.95;;;;;;;22.74;59.19;99007.20;1713878;83;22348;-79
2022/09/27 12:15:21;;;;;;;16.25;9.28;;;;;;;22.73;59.29;99002.20;1701435;82;21752;-79
2022/09/27 12:18:41;;;;;;;13.32;7.45;;;;;;;22.68;59.45;98990.52;1701885;82;21213;-80
2022/09/27 12:21:51;;;;;;;9.08;4.40;;;;;;;22.54;60.13;98992.27;1707252;82;21212;-79
2022/09/27 12:25:05;;;;;;;9.25;4.00;;;;;;;22.59;60.21;98990.84;1710832;82;21168;-80
2022/09/27 12:28:54;;;;;;;8.37;5.10;;;;;;;22.71;59.89;98998.28;1715517;82;21181;-80
2022/09/27 12:32:25;;;;;;;15.15;6.97;;;;;;;22.78;59.86;98999.94;1716372;82;21180;-80
2022/09/27 12:35:41;;;;;;;11.22;6.47;;;;;;;22.86;59.56;99000.70;1713534;82;21260;-80
2022/09/27 12:39:12;;;;;;;8.95;4.53;;;;;;;22.74;60.05;98991.88;1751537;81;21205;-79
2022/09/27 12:42:32;;;;;;;7.00;4.00;;;;;;;22.81;59.95;98985.41;1762050;79;21183;-80
2022/09/27 12:46:16;;;;;;;8.75;4.03;;;;;;;23.07;59.06;98988.33;1760052;79;21198;-79
2022/09/27 12:49:44;;;;;;;10.15;4.20;;;;;;;22.75;59.94;98989.36;1758545;81;21207;-79
2022/09/27 12:52:54;;;;;;;;;;;;;;;22.74;60.21;98990.48;1764748;81;22252;-80
2022/09/27 12:56:05;;;;;;;10.08;4.25;;;;;;;22.79;60.12;98999.64;1762835;81;20225;-79
2022/09/27 12:59:33;;;;;;;10.40;4.03;;;;;;;22.85;59.96;99000.44;1762775;81;21167;-78
2022/09/27 13:03:12;;;;;;;5.30;3.92;;;;;;;23.01;59.71;98989.50;1761668;81;21203;-79
2022/09/27 13:07:07;;;;;;;9.58;4.15;;;;;;;22.88;60.24;98981.19;1767915;79;21181;-78
2022/09/27 13:10:48;;;;;;;5.95;4.17;;;;;;;22.98;60.74;98985.89;1745977;79;21175;-79
2022/09/27 13:13:58;;;;;;;7.67;4.12;;;;;;;22.95;61.00;98974.73;1757695;81;21135;-78
2022/09/27 13:17:05;;;;;;;5.80;3.57;;;;;;;22.87;61.68;98968.94;1769260;81;21234;-79
2022/09/27 13:20:47;;;;;;;9.48;4.55;;;;;;;22.88;61.68;98960.84;1766904;79;21211;-77
2022/09/27 13:24:07;;;;;;;6.47;4.50;;;;;;;22.85;61.76;98958.05;1754002;81;21274;-79
2022/09/27 13:27:35;;;;;;;10.08;4.60;;;;;;;22.97;61.82;98960.53;1769857;81;22241;-80
2022/09/27 13:30:47;;;;;;;6.20;4.47;;;;;;;22.91;61.88;98957.48;1795417;79;21199;-80
2022/09/27 13:33:50;;;;;;;10.28;4.85;;;;;;;22.87;62.20;98955.83;1760385;79;21203;-80
2022/09/27 13:36:43;;;;;;;6.60;4.08;;;;;;;22.92;62.24;98948.02;1775240;79;21169;-80
2022/09/27 13:39:30;;;;;;;10.25;4.42;;;;;;;22.92;62.35;98952.20;1784663;79;21219;-80
2022/09/27 13:43:28;;;;;;;6.10;4.10;;;;;;;22.94;62.27;98947.16;1751718;81;21195;-80
2022/09/27 13:46:37;;;;;;;8.98;4.95;;;;;;;22.77;62.58;98946.69;1746124;81;21892;-80
2022/09/27 13:49:50;;;;;;;8.50;4.80;;;;;;;22.52;63.48;98945.73;1747485;82;21210;-80
2022/09/27 13:53:17;;;;;;;11.95;4.85;;;;;;;22.54;63.20;98936.55;1742897;82;21249;-80
2022/09/27 13:56:48;;;;;;;9.33;4.28;;;;;;;22.46;63.72;98931.57;1745231;82;21226;-81
2022/09/27 13:59:55;;;;;;;8.50;3.87;;;;;;;22.38;63.76;98932.16;1722695;82;21225;-79
2022/09/27 14:03:24;;;;;;;9.03;3.95;;;;;;;22.61;63.09;98934.25;1745868;82;21245;-79
2022/09/27 14:06:36;;;;;;;7.35;4.47;;;;;;;23.03;62.04;98940.41;1749101;80;21574;-80
2022/09/27 14:09:34;;;;;;;8.30;4.50;;;;;;;23.34;60.86;98934.84;1758815;80;21225;-78
2022/09/27 14:12:46;;;;;;;8.50;3.92;;;;;;;22.82;62.13;98934.10;1746180;82;21704;-78
2022/09/27 14:15:52;;;;;;;8.88;4.45;;;;;;;22.83;62.14;98933.00;1746040;82;21222;-78
2022/09/27 14:19:01;;;;;;;7.20;4.28;;;;;;;22.92;61.62;98915.96;1747040;82;21194;-78
2022/09/27 14:22:06;;;;;;;9.13;3.98;;;;;;;22.97;61.21;98917.31;1747005;82;21202;-78
2022/09/27 14:25:17;;;;;;;10.13;4.15;;;;;;;23.00;61.03;98911.13;1764717;80;21340;-78
2022/09/27 14:28:10;;;;;;;14.70;4.53;;;;;;;23.00;60.54;98920.06;1746871;82;21199;-78
2022/09/27 14:31:30;;;;;;;9.15;3.90;;;;;;;23.10;60.02;98927.80;1746398;82;21824;-78
2022/09/27 14:34:38;;;;;;;7.90;3.65;;;;;;;22.87;60.21;98909.84;1745480;82;21218;-78
2022/09/27 14:37:47;;;;;;;7.62;3.50;;;;;;;22.86;59.69;98913.72;1774460;80;21484;-78
2022/09/27 14:41:10;;;;;;;12.03;3.70;;;;;;;22.84;59.05;98915.15;1776994;80;21781;-78
2022/09/27 14:44:26;;;;;;;6.35;3.65;;;;;;;22.70;59.18;98921.38;1778642;80;21257;-79
2022/09/27 14:47:33;;;;;;;7.37;3.72;;;;;;;22.76;58.55;98914.37;1750770;81;21274;-78
2022/09/27 14:50:38;;;;;;;5.25;3.47;;;;;;;22.74;58.27;98909.09;1769347;81;21207;-78
2022/09/27 14:54:04;;;;;;;6.60;3.95;;;;;;;22.75;57.50;98893.20;1740474;82;21210;-78
2022/09/27 14:57:09;;;;;;;6.53;3.87;;;;;;;22.59;57.24;98877.99;1740593;82;21762;-79
2022/09/27 15:00:36;;;;;;;9.23;3.87;;;;;;;22.70;56.17;98870.38;1740523;82;21175;-78
2022/09/27 15:03:41;;;;;;;7.10;3.80;;;;;;;22.40;56.68;98872.84;1740533;82;21179;-78
2022/09/27 15:06:47;;;;;;;7.83;4.15;;;;;;;22.39;55.85;98865.02;1739603;82;21270;-78
2022/09/27 15:09:53;;;;;;;8.90;3.80;;;;;;;22.39;55.24;98862.80;1740492;82;21614;-78
2022/09/27 15:13:02;;;;;;;6.22;3.50;;;;;;;22.37;54.97;98862.27;1739492;81;21204;-78
2022/09/27 15:16:08;;;;;;;15.45;4.70;;;;;;;22.39;54.71;98867.80;1732271;82;21193;-78
2022/09/27 15:19:30;;;;;;;9.50;4.72;;;;;;;22.31;54.71;98849.50;1733630;82;21192;-78
2022/09/27 15:22:48;;;;;;;7.50;4.12;;;;;;;22.24;54.60;98855.94;1732452;82;21220;-79